Ryuhomaru — JD2639 — position and weather

sailwx.info

Track history (hours):
 
Tides and Currents Weather Stations Pressure Air Temp Water Temp Dewpoint Dewpoint Depression Visibility Wind Speed Wind Dir Waves Ship Positions

Ryuhomaru

Last reported at 2016-Aug-25 12:33 UTC. Time now 2016-Aug-25 13:16 UTC.
Position N 34°33' E 135°25'.

Length 42 m; draft 3.5 m.

Type: Tug. MMSI: 431000586.

Date/timePositionNaut miles runAvg speedWind from/ knotsBaromVisibWave heightAir tempDewpointWater temp
2016-Aug-25 12:33N 34°33' E 135°25'0 0.0
2016-Aug-25 11:33N 34°33' E 135°25'0 0.0
2016-Aug-25 10:26N 34°33' E 135°25'0 0.1
2016-Aug-25 09:30N 34°33' E 135°25'0 0.1
2016-Aug-25 08:23N 34°33' E 135°25'0 0.0
2016-Aug-25 07:33N 34°33' E 135°25'0 0.1
2016-Aug-25 06:33N 34°33' E 135°25'0 0.0
2016-Aug-25 04:34N 34°33' E 135°25'0 0.1
2016-Aug-25 03:34N 34°33' E 135°25'1 1.0
2016-Aug-25 02:34N 34°33' E 135°24'3 3.3
2016-Aug-25 01:33N 34°33' E 135°21'5 5.0
2016-Aug-25 00:33N 34°33' E 135°27'0 0.0
2016-Aug-24 23:32N 34°33' E 135°27'0 0.0
2016-Aug-24 22:33N 34°33' E 135°27'0 0.0
2016-Aug-24 09:20N 34°33' E 135°27'1 1.4
2016-Aug-24 08:26N 34°33' E 135°25'2 2.4
2016-Aug-24 07:33N 34°33' E 135°23'2 2.1
2016-Aug-24 06:33N 34°34' E 135°20'5 2.6
2016-Aug-24 04:32N 34°33' E 135°27'0 0.0
2016-Aug-24 03:33N 34°33' E 135°27'0 0.0
2016-Aug-24 02:33N 34°33' E 135°27'0 0.0
2016-Aug-24 01:27N 34°33' E 135°27'0 0.0
2016-Aug-24 00:33N 34°33' E 135°27'0 0.0
2016-Aug-23 23:21N 34°33' E 135°27'0 0.0
2016-Aug-23 05:33N 34°33' E 135°27'0 0.0
2016-Aug-23 04:33N 34°33' E 135°27'0 0.0
2016-Aug-23 02:29N 34°33' E 135°27'0 0.0
2016-Aug-23 01:32N 34°33' E 135°27'1 0.7
2016-Aug-23 00:33N 34°33' E 135°26'0 0.1
2016-Aug-22 23:33N 34°33' E 135°26'1 0.6
2016-Aug-22 22:33N 34°33' E 135°27'  
2016-Aug-19 04:33N 34°33' E 135°27'2 2.0
2016-Aug-19 03:33N 34°33' E 135°24'0 0.3
2016-Aug-19 02:32N 34°33' E 135°24'3 2.8
2016-Aug-19 01:33N 34°33' E 135°21'5 4.9
2016-Aug-19 00:32N 34°33' E 135°27'0 0.0
2016-Aug-18 23:32N 34°33' E 135°27'0 0.0
2016-Aug-18 02:33N 34°33' E 135°27'5 4.9
2016-Aug-18 01:33N 34°37' E 135°23'3 2.6
2016-Aug-18 00:34N 34°39' E 135°26'3 3.1
2016-Aug-17 23:28N 34°36' E 135°24'4 4.7
2016-Aug-17 22:33N 34°33' E 135°20'4 3.9
2016-Aug-17 21:33N 34°34' E 135°24'2 2.0
2016-Aug-17 20:33N 34°33' E 135°27'0 0.0
2016-Aug-16 04:33N 34°33' E 135°27'0 0.0
2016-Aug-16 03:32N 34°33' E 135°27'2 2.4
2016-Aug-16 02:32N 34°34' E 135°24'0 0.3
2016-Aug-16 01:33N 34°34' E 135°24'3 3.0
2016-Aug-16 00:33N 34°31' E 135°24'0 0.0
2016-Aug-15 23:33N 34°31' E 135°24'1 1.1
2016-Aug-15 22:33N 34°32' E 135°24'2 1.6
2016-Aug-15 21:33N 34°33' E 135°23'3 2.7
2016-Aug-15 20:33N 34°33' E 135°27'  
Track history (hours):
 
Tides and Currents Weather Stations Pressure Air Temp Water Temp Dewpoint Dewpoint Depression Visibility Wind Speed Wind Dir Waves Ship Positions

Ryuhomaru

Last reported at 2016-Aug-25 12:33 UTC. Time now 2016-Aug-25 13:16 UTC.
Position N 34°33' E 135°25'.

Length 42 m; draft 3.5 m.

Type: Tug. MMSI: 431000586.

Date/timePositionNaut miles runAvg speedWind from/ knotsBaromVisibWave heightAir tempDewpointWater temp
2016-Aug-25 12:33N 34°33' E 135°25'0 0.0
2016-Aug-25 11:33N 34°33' E 135°25'0 0.0
2016-Aug-25 10:26N 34°33' E 135°25'0 0.1
2016-Aug-25 09:30N 34°33' E 135°25'0 0.1
2016-Aug-25 08:23N 34°33' E 135°25'0 0.0
2016-Aug-25 07:33N 34°33' E 135°25'0 0.1
2016-Aug-25 06:33N 34°33' E 135°25'0 0.0
2016-Aug-25 04:34N 34°33' E 135°25'0 0.1
2016-Aug-25 03:34N 34°33' E 135°25'1 1.0
2016-Aug-25 02:34N 34°33' E 135°24'3 3.3
2016-Aug-25 01:33N 34°33' E 135°21'5 5.0
2016-Aug-25 00:33N 34°33' E 135°27'0 0.0
2016-Aug-24 23:32N 34°33' E 135°27'0 0.0
2016-Aug-24 22:33N 34°33' E 135°27'0 0.0
2016-Aug-24 09:20N 34°33' E 135°27'1 1.4
2016-Aug-24 08:26N 34°33' E 135°25'2 2.4
2016-Aug-24 07:33N 34°33' E 135°23'2 2.1
2016-Aug-24 06:33N 34°34' E 135°20'5 2.6
2016-Aug-24 04:32N 34°33' E 135°27'0 0.0
2016-Aug-24 03:33N 34°33' E 135°27'0 0.0
2016-Aug-24 02:33N 34°33' E 135°27'0 0.0
2016-Aug-24 01:27N 34°33' E 135°27'0 0.0
2016-Aug-24 00:33N 34°33' E 135°27'0 0.0
2016-Aug-23 23:21N 34°33' E 135°27'0 0.0
2016-Aug-23 05:33N 34°33' E 135°27'0 0.0
2016-Aug-23 04:33N 34°33' E 135°27'0 0.0
2016-Aug-23 02:29N 34°33' E 135°27'0 0.0
2016-Aug-23 01:32N 34°33' E 135°27'1 0.7
2016-Aug-23 00:33N 34°33' E 135°26'0 0.1
2016-Aug-22 23:33N 34°33' E 135°26'1 0.6
2016-Aug-22 22:33N 34°33' E 135°27'  
2016-Aug-19 04:33N 34°33' E 135°27'2 2.0
2016-Aug-19 03:33N 34°33' E 135°24'0 0.3
2016-Aug-19 02:32N 34°33' E 135°24'3 2.8
2016-Aug-19 01:33N 34°33' E 135°21'5 4.9
2016-Aug-19 00:32N 34°33' E 135°27'0 0.0
2016-Aug-18 23:32N 34°33' E 135°27'0 0.0
2016-Aug-18 02:33N 34°33' E 135°27'5 4.9
2016-Aug-18 01:33N 34°37' E 135°23'3 2.6
2016-Aug-18 00:34N 34°39' E 135°26'3 3.1
2016-Aug-17 23:28N 34°36' E 135°24'4 4.7
2016-Aug-17 22:33N 34°33' E 135°20'4 3.9
2016-Aug-17 21:33N 34°34' E 135°24'2 2.0
2016-Aug-17 20:33N 34°33' E 135°27'0 0.0
2016-Aug-16 04:33N 34°33' E 135°27'0 0.0
2016-Aug-16 03:32N 34°33' E 135°27'2 2.4
2016-Aug-16 02:32N 34°34' E 135°24'0 0.3
2016-Aug-16 01:33N 34°34' E 135°24'3 3.0
2016-Aug-16 00:33N 34°31' E 135°24'0 0.0
2016-Aug-15 23:33N 34°31' E 135°24'1 1.1
2016-Aug-15 22:33N 34°32' E 135°24'2 1.6
2016-Aug-15 21:33N 34°33' E 135°23'3 2.7
2016-Aug-15 20:33N 34°33' E 135°27'  

Dump ship's entire track history